createdAt,value
2023-01-07T00:01:33.818Z,101063.47
2023-01-07T00:04:02.617Z,101060.88
2023-01-07T00:06:33.397Z,101052.09
2023-01-07T00:09:01.597Z,101057.34
2023-01-07T00:11:38.323Z,101051.22
2023-01-07T00:14:08.651Z,101045.06
2023-01-07T00:16:37.226Z,101043.28
2023-01-07T00:19:07.426Z,101048.50
2023-01-07T00:21:35.314Z,101049.38
2023-01-07T00:24:05.993Z,101046.84
2023-01-07T00:26:36.382Z,101033.66
2023-01-07T00:29:05.912Z,101034.56
2023-01-07T00:31:37.450Z,101028.47
2023-01-07T00:34:05.085Z,101028.47
2023-01-07T00:36:42.700Z,101031.94
2023-01-07T00:39:19.941Z,101031.91
2023-01-07T00:42:06.978Z,101021.41
2023-01-07T00:44:37.039Z,101026.66
2023-01-07T00:47:04.107Z,101015.28
2023-01-07T00:49:31.509Z,101013.53
2023-01-07T00:51:58.726Z,101006.56
2023-01-07T00:54:25.750Z,101009.19
2023-01-07T00:56:52.718Z,101004.81
2023-01-07T00:59:20.094Z,100997.00
2023-01-07T01:01:47.482Z,101003.06
2023-01-07T01:04:15.205Z,101000.41
2023-01-07T01:06:42.195Z,100994.28
2023-01-07T01:09:09.164Z,100996.91
2023-01-07T01:11:42.843Z,100993.38
2023-01-07T01:14:11.666Z,100986.34
2023-01-07T01:16:39.147Z,100989.88
2023-01-07T01:19:06.830Z,100993.41
2023-01-07T01:21:33.826Z,100985.50
2023-01-07T01:24:00.895Z,100985.53
2023-01-07T01:26:27.879Z,100993.41
2023-01-07T01:28:54.858Z,100997.78
2023-01-07T01:31:24.305Z,101000.44
2023-01-07T01:33:57.303Z,100996.94
2023-01-07T01:36:25.144Z,101002.22
2023-01-07T01:38:54.799Z,100996.16
2023-01-07T01:41:22.196Z,100998.81
2023-01-07T01:43:51.974Z,100999.69
2023-01-07T01:46:38.316Z,100987.41
2023-01-07T01:49:36.958Z,100983.03
2023-01-07T01:52:11.777Z,100987.34
2023-01-07T01:54:42.729Z,100988.22
2023-01-07T01:57:10.437Z,100982.13
2023-01-07T01:59:44.138Z,100976.88
2023-01-07T02:02:18.373Z,100978.63
2023-01-07T02:04:45.494Z,100976.84
2023-01-07T02:07:17.211Z,100977.72
2023-01-07T02:10:19.833Z,100983.88
2023-01-07T02:13:16.887Z,100974.22
2023-01-07T02:16:07.833Z,100967.19
2023-01-07T02:19:25.498Z,100968.94
2023-01-07T02:22:42.382Z,100969.81
2023-01-07T02:25:30.251Z,100962.78
2023-01-07T02:28:09.466Z,100963.63
2023-01-07T02:30:54.531Z,100961.09
2023-01-07T02:34:01.386Z,100950.56
2023-01-07T02:36:54.539Z,100952.38
2023-01-07T02:39:39.030Z,100943.66
2023-01-07T02:42:43.016Z,100940.06
2023-01-07T02:45:32.830Z,100933.94
2023-01-07T02:48:05.714Z,100928.72
2023-01-07T02:50:32.905Z,100927.81
2023-01-07T02:53:00.936Z,100915.53
2023-01-07T02:55:39.858Z,100921.72
2023-01-07T02:58:28.662Z,100920.78
2023-01-07T03:01:42.969Z,100905.03
2023-01-07T03:04:19.171Z,100905.03
2023-01-07T03:07:02.253Z,100905.03
2023-01-07T03:09:53.198Z,100912.09
2023-01-07T03:12:42.686Z,100906.81
2023-01-07T03:15:23.115Z,100906.84
2023-01-07T03:18:19.638Z,100899.81
2023-01-07T03:20:51.702Z,100893.69
2023-01-07T03:23:22.650Z,100893.69
2023-01-07T03:25:52.006Z,100885.88
2023-01-07T03:28:27.351Z,100888.53
2023-01-07T03:30:57.790Z,100888.59
2023-01-07T03:33:39.625Z,100887.78
2023-01-07T03:36:10.948Z,100884.19
2023-01-07T03:38:40.305Z,100885.84
2023-01-07T03:41:07.951Z,100882.28
2023-01-07T03:43:35.382Z,100878.91
2023-01-07T03:46:02.553Z,100880.59
2023-01-07T03:48:29.622Z,100881.41
2023-01-07T03:50:57.064Z,100878.91
2023-01-07T03:53:24.098Z,100866.69
2023-01-07T03:55:52.071Z,100873.69
2023-01-07T03:58:19.444Z,100867.50
2023-01-07T04:00:46.470Z,100864.06
2023-01-07T04:03:18.482Z,100864.00
2023-01-07T04:05:47.468Z,100853.44
2023-01-07T04:08:15.061Z,100858.72
2023-01-07T04:10:42.665Z,100857.00
2023-01-07T04:13:13.532Z,100850.91
2023-01-07T04:15:44.986Z,100852.63
2023-01-07T04:18:12.491Z,100850.84
2023-01-07T04:20:39.790Z,100852.59
2023-01-07T04:23:06.757Z,100834.22
2023-01-07T04:25:34.009Z,100844.72
2023-01-07T04:28:04.498Z,100845.69
2023-01-07T04:30:33.366Z,100837.78
2023-01-07T04:33:01.832Z,100836.91
2023-01-07T04:35:28.843Z,100831.66
2023-01-07T04:37:56.549Z,100823.78
2023-01-07T04:40:23.648Z,100825.47
2023-01-07T04:42:50.846Z,100827.22
2023-01-07T04:45:18.178Z,100820.22
2023-01-07T04:47:46.615Z,100815.94
2023-01-07T04:50:14.607Z,100812.47
2023-01-07T04:52:42.552Z,100817.69
2023-01-07T04:55:11.100Z,100809.81
2023-01-07T04:57:38.892Z,100815.91
2023-01-07T05:00:08.996Z,100817.69
2023-01-07T05:02:36.690Z,100817.78
2023-01-07T05:05:05.352Z,100805.53
2023-01-07T05:07:32.749Z,100801.97
2023-01-07T05:10:00.605Z,100807.22
2023-01-07T05:12:29.156Z,100803.75
2023-01-07T05:14:56.241Z,100793.34
2023-01-07T05:17:23.295Z,100794.22
2023-01-07T05:19:51.166Z,100793.25
2023-01-07T05:22:18.151Z,100793.25
2023-01-07T05:24:45.121Z,100791.47
2023-01-07T05:27:12.475Z,100791.47
2023-01-07T05:29:40.935Z,100791.53
2023-01-07T05:32:07.860Z,100790.59
2023-01-07T05:34:37.323Z,100781.81
2023-01-07T05:37:04.312Z,100774.78
2023-01-07T05:39:34.299Z,100775.75
2023-01-07T05:42:03.662Z,100768.84
2023-01-07T05:44:31.043Z,100770.59
2023-01-07T05:46:58.617Z,100767.97
2023-01-07T05:49:25.566Z,100763.59
2023-01-07T05:51:52.578Z,100762.78
2023-01-07T05:54:19.754Z,100761.75
2023-01-07T05:56:46.848Z,100749.47
2023-01-07T05:59:14.157Z,100753.84
2023-01-07T06:01:41.527Z,100748.63
2023-01-07T06:04:09.339Z,100753.91
2023-01-07T06:06:36.292Z,100746.94
2023-01-07T06:09:03.267Z,100743.38
2023-01-07T06:11:30.437Z,100746.03
2023-01-07T06:13:57.387Z,100746.03
2023-01-07T06:16:24.331Z,100739.09
2023-01-07T06:18:51.325Z,100744.31
2023-01-07T06:21:18.612Z,100747.81
2023-01-07T06:23:45.782Z,100745.13
2023-01-07T06:26:12.929Z,100745.09
2023-01-07T06:28:39.899Z,100743.34
2023-01-07T06:31:09.658Z,100739.91
2023-01-07T06:33:37.995Z,100732.00
2023-01-07T06:36:05.672Z,100738.16
2023-01-07T06:38:34.289Z,100728.56
2023-01-07T06:41:02.358Z,100729.44
2023-01-07T06:43:30.022Z,100725.88
2023-01-07T06:45:57.172Z,100727.66
2023-01-07T06:48:24.469Z,100724.13
2023-01-07T06:50:51.511Z,100722.41
2023-01-07T06:53:18.820Z,100722.41
2023-01-07T06:55:50.231Z,100715.34
2023-01-07T06:58:18.394Z,100707.50
2023-01-07T07:00:45.501Z,100708.44
2023-01-07T07:03:12.798Z,100701.38
2023-01-07T07:05:40.356Z,100700.53
2023-01-07T07:08:07.282Z,100702.25
2023-01-07T07:10:34.416Z,100703.09
2023-01-07T07:13:01.961Z,100703.09
2023-01-07T07:15:29.013Z,100694.38
2023-01-07T07:17:56.450Z,100697.00
2023-01-07T07:20:24.732Z,100695.28
2023-01-07T07:22:51.744Z,100691.72
2023-01-07T07:25:18.890Z,100687.19
2023-01-07T07:27:46.741Z,100689.81
2023-01-07T07:30:15.573Z,100686.25
2023-01-07T07:32:43.382Z,100691.50
2023-01-07T07:35:11.223Z,100685.41
2023-01-07T07:37:38.899Z,100688.88
2023-01-07T07:40:07.558Z,100684.41
2023-01-07T07:43:11.788Z,100680.06
2023-01-07T07:45:21.747Z,100683.63
2023-01-07T07:47:48.767Z,100679.16
2023-01-07T07:50:15.853Z,100675.75
2023-01-07T07:52:42.969Z,100670.50
2023-01-07T07:55:20.097Z,100661.75
2023-01-07T07:57:58.153Z,100656.50
2023-01-07T08:00:25.188Z,100655.53
2023-01-07T08:02:52.187Z,100649.44
2023-01-07T08:05:19.284Z,100645.06
2023-01-07T08:07:46.252Z,100652.03
2023-01-07T08:10:13.536Z,100644.91
2023-01-07T08:12:40.742Z,100652.88
2023-01-07T08:15:08.436Z,100649.34
2023-01-07T08:17:39.224Z,100646.69
2023-01-07T08:20:07.960Z,100639.66
2023-01-07T08:22:35.251Z,100633.44
2023-01-07T08:25:02.653Z,100632.59
2023-01-07T08:27:30.299Z,100626.50
2023-01-07T08:29:57.241Z,100627.28
2023-01-07T08:32:24.266Z,100624.66
2023-01-07T08:34:51.374Z,100627.28
2023-01-07T08:37:18.323Z,100636.00
2023-01-07T08:39:45.367Z,100636.84
2023-01-07T08:42:12.294Z,100625.44
2023-01-07T08:44:39.537Z,100630.69
2023-01-07T08:47:06.911Z,100618.44
2023-01-07T08:49:33.887Z,100620.09
2023-01-07T08:52:01.566Z,100630.47
2023-01-07T08:54:28.844Z,100621.78
2023-01-07T08:56:56.105Z,100619.19
2023-01-07T08:59:23.430Z,100612.16
2023-01-07T09:01:50.490Z,100614.72
2023-01-07T09:04:17.531Z,100613.75
2023-01-07T09:06:44.759Z,100610.22
2023-01-07T09:09:14.317Z,100604.00
2023-01-07T09:11:41.305Z,100606.56
2023-01-07T09:14:08.358Z,100598.59
2023-01-07T09:16:35.668Z,100596.81
2023-01-07T09:19:02.888Z,100587.06
2023-01-07T09:21:29.795Z,100586.94
2023-01-07T09:23:56.773Z,100590.34
2023-01-07T09:26:23.747Z,100589.41
2023-01-07T09:28:50.788Z,100582.44
2023-01-07T09:31:17.813Z,100584.97
2023-01-07T09:33:45.151Z,100577.94
2023-01-07T09:36:12.158Z,100577.03
2023-01-07T09:38:39.229Z,100575.22
2023-01-07T09:41:53.876Z,100575.91
2023-01-07T09:45:04.454Z,100577.50
2023-01-07T09:47:36.996Z,100575.59
2023-01-07T09:50:29.324Z,100573.81
2023-01-07T09:53:01.836Z,100564.13
2023-01-07T09:55:38.956Z,100563.03
2023-01-07T09:58:26.364Z,100558.59
2023-01-07T10:00:58.351Z,100565.50
2023-01-07T10:03:58.046Z,100551.44
2023-01-07T10:06:51.521Z,100552.19
2023-01-07T10:09:56.854Z,100555.88
2023-01-07T10:12:37.568Z,100548.00
2023-01-07T10:15:18.867Z,100557.53
2023-01-07T10:17:51.695Z,100551.34
2023-01-07T10:20:44.125Z,100545.94
2023-01-07T10:23:19.385Z,100543.22
2023-01-07T10:25:54.098Z,100531.81
2023-01-07T10:28:59.924Z,100526.31
2023-01-07T10:31:28.725Z,100533.38
2023-01-07T10:33:57.865Z,100520.88
2023-01-07T10:36:34.902Z,100514.69
2023-01-07T10:39:26.404Z,100510.09
2023-01-07T10:42:38.013Z,100509.00
2023-01-07T10:45:46.266Z,100501.81
2023-01-07T10:48:48.878Z,100489.34
2023-01-07T10:51:34.562Z,100481.63
2023-01-07T10:54:44.932Z,100467.25
2023-01-07T10:57:24.536Z,100469.06
2023-01-07T10:59:56.415Z,100461.38
2023-01-07T11:02:27.511Z,100462.84
2023-01-07T11:04:57.066Z,100460.94
2023-01-07T11:07:50.056Z,100456.28
2023-01-07T11:10:32.514Z,100456.19
2023-01-07T11:13:14.884Z,100445.75
2023-01-07T11:15:50.611Z,100443.94
2023-01-07T11:18:26.952Z,100433.44
2023-01-07T11:20:59.945Z,100437.41
2023-01-07T11:23:36.753Z,100428.56
2023-01-07T11:26:27.462Z,100424.09
2023-01-07T11:28:58.583Z,100417.69
2023-01-07T11:31:55.853Z,100415.34
2023-01-07T11:34:32.446Z,100406.16
2023-01-07T11:36:59.747Z,100404.34
2023-01-07T11:39:33.754Z,100396.97
2023-01-07T11:42:22.450Z,100390.78
2023-01-07T11:44:49.437Z,100387.91
2023-01-07T11:47:18.482Z,100386.00
2023-01-07T11:49:46.112Z,100367.91
2023-01-07T11:52:20.279Z,100370.16
2023-01-07T11:54:52.348Z,100374.88
2023-01-07T11:57:26.829Z,100356.97
2023-01-07T12:00:20.390Z,100358.34
2023-01-07T12:03:09.511Z,100350.47
2023-01-07T12:05:36.983Z,100350.84
2023-01-07T12:08:05.680Z,100339.78
2023-01-07T12:10:41.873Z,100335.53
2023-01-07T12:13:25.684Z,100335.72
2023-01-07T12:16:02.838Z,100329.56
2023-01-07T12:18:57.712Z,100325.81
2023-01-07T12:21:35.241Z,100318.88
2023-01-07T12:24:09.121Z,100303.94
2023-01-07T12:26:56.881Z,100308.31
2023-01-07T12:29:45.440Z,100294.59
2023-01-07T12:32:36.659Z,100295.66
2023-01-07T12:35:15.703Z,100299.94
2023-01-07T12:37:58.813Z,100292.66
2023-01-07T12:40:42.398Z,100293.56
2023-01-07T12:43:22.377Z,100286.25
2023-01-07T12:46:10.819Z,100274.38
2023-01-07T12:48:48.769Z,100271.09
2023-01-07T12:51:25.425Z,100274.47
2023-01-07T12:54:12.771Z,100264.91
2023-01-07T12:57:03.932Z,100251.94
2023-01-07T12:59:46.316Z,100244.88
2023-01-07T13:02:51.102Z,100245.94
2023-01-07T13:05:26.606Z,100231.53
2023-01-07T13:08:04.171Z,100236.91
2023-01-07T13:10:46.911Z,100233.06
2023-01-07T13:13:22.586Z,100231.41
2023-01-07T13:15:50.942Z,100233.88
2023-01-07T13:18:20.863Z,100229.38
2023-01-07T13:21:14.994Z,100232.31
2023-01-07T13:24:08.860Z,100230.53
2023-01-07T13:27:19.263Z,100228.22
2023-01-07T13:30:18.527Z,100217.66
2023-01-07T13:33:05.166Z,100211.63
2023-01-07T13:36:28.174Z,100210.16
2023-01-07T13:39:16.333Z,100217.00
2023-01-07T13:42:15.810Z,100214.78
2023-01-07T13:44:57.648Z,100211.34
2023-01-07T13:47:36.796Z,100199.63
2023-01-07T13:50:04.752Z,100207.56
2023-01-07T13:52:34.181Z,100208.78
2023-01-07T13:55:25.848Z,100218.13
2023-01-07T13:57:52.868Z,100217.94
2023-01-07T14:00:42.247Z,100213.09
2023-01-07T14:03:55.290Z,100206.41
2023-01-07T14:06:22.256Z,100203.44
2023-01-07T14:09:16.076Z,100199.25
2023-01-07T14:12:16.266Z,100205.75
2023-01-07T14:15:05.924Z,100198.00
2023-01-07T14:17:57.951Z,100204.19
2023-01-07T14:20:35.422Z,100201.72
2023-01-07T14:23:16.209Z,100199.44
2023-01-07T14:26:23.969Z,100192.31
2023-01-07T14:29:12.306Z,100187.53
2023-01-07T14:31:39.617Z,100187.78
2023-01-07T14:34:22.957Z,100191.44
2023-01-07T14:37:02.373Z,100184.78
2023-01-07T14:39:35.530Z,100193.00
2023-01-07T14:42:20.921Z,100187.28
2023-01-07T14:44:50.357Z,100194.44
2023-01-07T14:47:45.411Z,100185.13
2023-01-07T14:50:27.431Z,100185.47
2023-01-07T14:54:10.256Z,100190.28
2023-01-07T14:57:03.043Z,100193.19
2023-01-07T15:00:13.499Z,100191.09
2023-01-07T15:03:24.249Z,100188.56
2023-01-07T15:06:12.390Z,100178.75
2023-01-07T15:09:50.046Z,100167.16
2023-01-07T15:12:46.907Z,100167.94
2023-01-07T15:15:46.918Z,100160.47
2023-01-07T15:18:15.516Z,100161.78
2023-01-07T15:21:19.283Z,100164.19
2023-01-07T15:24:13.666Z,100169.06
2023-01-07T15:27:02.313Z,100168.47
2023-01-07T15:30:05.904Z,100172.50
2023-01-07T15:32:41.492Z,100172.34
2023-01-07T15:35:17.493Z,100169.16
2023-01-07T15:37:51.489Z,100166.00
2023-01-07T15:40:23.478Z,100156.91
2023-01-07T15:42:54.502Z,100160.91
2023-01-07T15:45:26.344Z,100160.53
2023-01-07T15:48:07.902Z,100161.00
2023-01-07T15:50:37.589Z,100163.09
2023-01-07T15:53:11.053Z,100165.22
2023-01-07T15:55:51.928Z,100155.91
2023-01-07T15:58:40.193Z,100155.75
2023-01-07T16:01:15.864Z,100152.69
2023-01-07T16:03:47.279Z,100152.44
2023-01-07T16:06:39.098Z,100158.50
2023-01-07T16:09:19.129Z,100153.47
2023-01-07T16:11:46.637Z,100149.25
2023-01-07T16:14:35.221Z,100146.03
2023-01-07T16:17:16.165Z,100136.56
2023-01-07T16:19:43.144Z,100144.88
2023-01-07T16:22:24.761Z,100143.47
2023-01-07T16:24:55.849Z,100145.41
2023-01-07T16:27:30.172Z,100137.69
2023-01-07T16:29:59.537Z,100136.53
2023-01-07T16:32:27.606Z,100138.28
2023-01-07T16:35:19.562Z,100132.25
2023-01-07T16:37:49.126Z,100130.78
2023-01-07T16:40:35.419Z,100129.16
2023-01-07T16:43:03.749Z,100125.69
2023-01-07T16:45:36.250Z,100135.44
2023-01-07T16:48:21.351Z,100127.75
2023-01-07T16:50:50.094Z,100120.16
2023-01-07T16:53:32.258Z,100128.03
2023-01-07T16:56:02.491Z,100120.47
2023-01-07T16:58:39.737Z,100123.19
2023-01-07T17:01:08.751Z,100111.84
2023-01-07T17:03:58.511Z,100115.75
2023-01-07T17:06:41.243Z,100104.69
2023-01-07T17:09:37.734Z,100105.78
2023-01-07T17:12:05.785Z,100105.44
2023-01-07T17:14:36.833Z,100103.00
2023-01-07T17:17:19.569Z,100098.63
2023-01-07T17:20:12.492Z,100096.03
2023-01-07T17:22:40.348Z,100091.78
2023-01-07T17:25:14.809Z,100094.56
2023-01-07T17:28:07.633Z,100091.31
2023-01-07T17:30:36.573Z,100097.63
2023-01-07T17:33:04.591Z,100104.53
2023-01-07T17:35:31.707Z,100098.53
2023-01-07T17:37:58.842Z,100099.44
2023-01-07T17:40:25.900Z,100090.56
2023-01-07T17:43:12.048Z,100094.09
2023-01-07T17:45:39.279Z,100084.59
2023-01-07T17:48:13.811Z,100086.25
2023-01-07T17:50:42.241Z,100078.66
2023-01-07T17:53:28.366Z,100078.78
2023-01-07T17:55:55.518Z,100080.75
2023-01-07T17:58:34.821Z,100071.81
2023-01-07T18:01:07.119Z,100071.31
2023-01-07T18:03:34.423Z,100080.03
2023-01-07T18:06:02.126Z,100076.59
2023-01-07T18:08:29.684Z,100076.66
2023-01-07T18:11:16.129Z,100070.41
2023-01-07T18:13:43.605Z,100070.56
2023-01-07T18:16:14.112Z,100078.63
2023-01-07T18:18:41.247Z,100077.66
2023-01-07T18:21:11.517Z,100070.75
2023-01-07T18:23:38.678Z,100076.31
2023-01-07T18:26:06.543Z,100080.03
2023-01-07T18:28:33.893Z,100080.13
2023-01-07T18:31:01.494Z,100078.16
2023-01-07T18:33:28.842Z,100086.84
2023-01-07T18:35:56.030Z,100085.97
2023-01-07T18:38:23.410Z,100086.91
2023-01-07T18:40:50.679Z,100079.88
2023-01-07T18:43:19.199Z,100074.78
2023-01-07T18:45:48.477Z,100073.78
2023-01-07T18:48:18.300Z,100075.56
2023-01-07T18:50:48.996Z,100067.69
2023-01-07T18:53:18.069Z,100072.25
2023-01-07T18:55:46.209Z,100068.81
2023-01-07T18:58:14.941Z,100063.72
2023-01-07T19:00:42.868Z,100056.81
2023-01-07T19:03:11.082Z,100053.59
2023-01-07T19:05:41.717Z,100050.13
2023-01-07T19:08:08.810Z,100050.97
2023-01-07T19:10:42.229Z,100047.47
2023-01-07T19:13:09.503Z,100048.41
2023-01-07T19:15:38.193Z,100044.81
2023-01-07T19:18:05.694Z,100048.56
2023-01-07T19:20:32.805Z,100051.97
2023-01-07T19:23:01.133Z,100057.38
2023-01-07T19:25:31.091Z,100053.94
2023-01-07T19:27:58.510Z,100055.91
2023-01-07T19:30:25.830Z,100054.13
2023-01-07T19:32:53.401Z,100053.31
2023-01-07T19:35:28.311Z,100046.41
2023-01-07T19:37:55.769Z,100041.19
2023-01-07T19:40:23.591Z,100028.94
2023-01-07T19:42:53.722Z,100034.31
2023-01-07T19:45:21.886Z,100030.56
2023-01-07T19:47:51.513Z,100039.22
2023-01-07T19:50:20.644Z,100028.91
2023-01-07T19:52:48.178Z,100028.09
2023-01-07T19:55:15.750Z,100020.34
2023-01-07T19:57:46.389Z,100023.63
2023-01-07T20:00:18.771Z,100022.84
2023-01-07T20:02:47.111Z,100026.50
2023-01-07T20:05:15.934Z,100018.81
2023-01-07T20:07:43.142Z,100015.09
2023-01-07T20:10:11.405Z,100004.63
2023-01-07T20:12:39.334Z,100005.53
2023-01-07T20:15:07.300Z,100007.47
2023-01-07T20:17:34.887Z,100005.59
2023-01-07T20:20:02.347Z,100002.16
2023-01-07T20:22:29.955Z,100011.03
2023-01-07T20:24:57.044Z,100020.72
2023-01-07T20:27:25.429Z,100014.50
2023-01-07T20:29:53.664Z,100025.44
2023-01-07T20:32:21.323Z,100024.50
2023-01-07T20:34:48.857Z,100022.69
2023-01-07T20:37:19.945Z,100020.16
2023-01-07T20:39:47.131Z,100021.31
2023-01-07T20:43:08.911Z,100021.38
2023-01-07T20:45:11.157Z,100021.66
2023-01-07T20:47:38.509Z,100024.22
2023-01-07T20:50:06.926Z,100025.19
2023-01-07T20:52:34.415Z,100028.72
2023-01-07T20:55:01.812Z,100031.31
2023-01-07T20:57:31.297Z,100030.47
2023-01-07T20:59:58.392Z,100028.69
2023-01-07T21:02:25.769Z,100019.00
2023-01-07T21:04:53.823Z,100016.47
2023-01-07T21:07:21.006Z,100010.47
2023-01-07T21:09:48.805Z,100001.94
2023-01-07T21:12:15.898Z,100006.16
2023-01-07T21:14:43.342Z,100007.91
2023-01-07T21:17:10.341Z,100011.41
2023-01-07T21:19:41.300Z,100002.66
2023-01-07T21:22:08.494Z,100007.88
2023-01-07T21:24:35.633Z,100012.19
2023-01-07T21:27:03.080Z,100012.19
2023-01-07T21:29:30.174Z,100020.78
2023-01-07T21:31:57.914Z,100015.72
2023-01-07T21:34:25.151Z,100021.75
2023-01-07T21:36:52.382Z,100021.72
2023-01-07T21:39:22.262Z,100019.25
2023-01-07T21:41:49.704Z,100017.41
2023-01-07T21:44:17.062Z,100011.34
2023-01-07T21:46:48.209Z,100003.50
2023-01-07T21:49:21.581Z,100005.09
2023-01-07T21:51:50.364Z,100003.66
2023-01-07T21:54:17.593Z,100002.63
2023-01-07T21:56:45.221Z,100006.91
2023-01-07T21:59:12.423Z,100011.31
2023-01-07T22:01:40.123Z,100006.97
2023-01-07T22:04:07.697Z,100000.78
2023-01-07T22:06:36.739Z,100003.19
2023-01-07T22:09:08.117Z,100014.50
2023-01-07T22:11:39.195Z,100008.31
2023-01-07T22:14:06.701Z,100009.25
2023-01-07T22:16:35.053Z,100016.88
2023-01-07T22:19:03.076Z,100012.59
2023-01-07T22:21:31.673Z,100023.00
2023-01-07T22:24:00.036Z,100030.91
2023-01-07T22:26:30.961Z,100032.78
2023-01-07T22:29:03.285Z,100031.72
2023-01-07T22:31:33.877Z,100029.06
2023-01-07T22:34:01.441Z,100009.81
2023-01-07T22:36:34.769Z,100021.16
2023-01-07T22:39:07.717Z,100015.88
2023-01-07T22:41:35.538Z,100006.22
2023-01-07T22:44:09.330Z,100009.69
2023-01-07T22:46:42.257Z,100008.72
2023-01-07T22:49:09.606Z,100014.56
2023-01-07T22:51:42.874Z,100006.69
2023-01-07T22:54:12.546Z,100005.22
2023-01-07T22:56:42.302Z,100006.91
2023-01-07T22:59:10.091Z,100000.69
2023-01-07T23:01:38.134Z,99984.09
2023-01-07T23:04:05.562Z,99972.69
2023-01-07T23:06:32.695Z,99970.06
2023-01-07T23:09:00.329Z,99986.84
2023-01-07T23:11:47.760Z,99984.22
2023-01-07T23:14:25.907Z,99985.88
2023-01-07T23:16:53.407Z,99972.78
2023-01-07T23:19:21.989Z,99977.91
2023-01-07T23:21:53.193Z,99975.22
2023-01-07T23:24:23.175Z,99979.50
2023-01-07T23:26:54.367Z,99974.25
2023-01-07T23:29:22.095Z,99977.75
2023-01-07T23:31:49.758Z,99976.81
2023-01-07T23:34:17.897Z,99979.50
2023-01-07T23:36:45.019Z,99978.59
2023-01-07T23:39:12.387Z,99975.91
2023-01-07T23:41:39.479Z,99974.25
2023-01-07T23:44:07.534Z,99970.75
2023-01-07T23:46:35.533Z,99963.97
2023-01-07T23:49:05.520Z,99954.97
2023-01-07T23:51:34.135Z,99936.59
2023-01-07T23:54:01.214Z,99923.41
2023-01-07T23:56:28.651Z,99926.94
2023-01-07T23:58:55.828Z,99919.97
